sensor_id;sensor_type;location;lat;lon;timestamp;pressure;altitude;pressure_sealevel;temperature;humidity
66880;BME280;53789;51.392;10.234;2022-08-19T00:00:08;97857.75;;;18.73;76.80
66880;BME280;53789;51.392;10.234;2022-08-19T00:00:29;97857.75;;;18.73;76.89
66880;BME280;53789;51.392;10.234;2022-08-19T00:00:50;97863.31;;;18.73;77.62
66880;BME280;53789;51.392;10.234;2022-08-19T00:01:10;97858.91;;;18.72;76.74
66880;BME280;53789;51.392;10.234;2022-08-19T00:01:31;97870.44;;;18.70;76.73
66880;BME280;53789;51.392;10.234;2022-08-19T00:01:54;97869.25;;;18.71;77.02
66880;BME280;53789;51.392;10.234;2022-08-19T00:02:14;97870.44;;;18.70;77.27
66880;BME280;53789;51.392;10.234;2022-08-19T00:02:36;97871.25;;;18.71;77.15
66880;BME280;53789;51.392;10.234;2022-08-19T00:02:56;97870.44;;;18.70;76.79
66880;BME280;53789;51.392;10.234;2022-08-19T00:03:17;97878.00;;;18.70;76.76
66880;BME280;53789;51.392;10.234;2022-08-19T00:03:37;97875.19;;;18.70;77.22
66880;BME280;53789;51.392;10.234;2022-08-19T00:04:00;97877.19;;;18.69;77.05
66880;BME280;53789;51.392;10.234;2022-08-19T00:04:25;97876.00;;;18.70;77.09
66880;BME280;53789;51.392;10.234;2022-08-19T00:04:46;97885.97;;;18.71;76.99
66880;BME280;53789;51.392;10.234;2022-08-19T00:05:08;97880.41;;;18.71;77.36
66880;BME280;53789;51.392;10.234;2022-08-19T00:05:29;97879.59;;;18.71;76.88
66880;BME280;53789;51.392;10.234;2022-08-19T00:05:49;97884.81;;;18.72;77.29
66880;BME280;53789;51.392;10.234;2022-08-19T00:06:09;97885.59;;;18.73;76.66
66880;BME280;53789;51.392;10.234;2022-08-19T00:06:30;97876.09;;;18.74;76.91
66880;BME280;53789;51.392;10.234;2022-08-19T00:06:51;97885.22;;;18.74;77.09
66880;BME280;53789;51.392;10.234;2022-08-19T00:07:12;97878.50;;;18.75;76.71
66880;BME280;53789;51.392;10.234;2022-08-19T00:07:32;97879.28;;;18.76;77.18
66880;BME280;53789;51.392;10.234;2022-08-19T00:07:53;97876.50;;;18.76;76.80
66880;BME280;53789;51.392;10.234;2022-08-19T00:08:13;97876.50;;;18.76;76.64
66880;BME280;53789;51.392;10.234;2022-08-19T00:08:33;97883.69;;;18.77;76.75
66880;BME280;53789;51.392;10.234;2022-08-19T00:08:54;97874.53;;;18.76;77.46
66880;BME280;53789;51.392;10.234;2022-08-19T00:09:17;97877.31;;;18.76;77.25
66880;BME280;53789;51.392;10.234;2022-08-19T00:09:38;97875.34;;;18.77;77.41
66880;BME280;53789;51.392;10.234;2022-08-19T00:09:58;97878.13;;;18.77;77.41
66880;BME280;53789;51.392;10.234;2022-08-19T00:10:20;97882.91;;;18.76;76.85
66880;BME280;53789;51.392;10.234;2022-08-19T00:10:40;97882.06;;;18.76;77.37
66880;BME280;53789;51.392;10.234;2022-08-19T00:11:01;97878.50;;;18.75;76.97
66880;BME280;53789;51.392;10.234;2022-08-19T00:11:21;97872.09;;;18.75;76.78
66880;BME280;53789;51.392;10.234;2022-08-19T00:11:43;97875.72;;;18.75;77.01
66880;BME280;53789;51.392;10.234;2022-08-19T00:12:04;97872.47;;;18.73;77.03
66880;BME280;53789;51.392;10.234;2022-08-19T00:12:24;97881.66;;;18.74;77.02
66880;BME280;53789;51.392;10.234;2022-08-19T00:12:45;97872.47;;;18.73;77.22
66880;BME280;53789;51.392;10.234;2022-08-19T00:13:05;97876.09;;;18.74;76.77
66880;BME280;53789;51.392;10.234;2022-08-19T00:13:25;97870.50;;;18.74;76.98
66880;BME280;53789;51.392;10.234;2022-08-19T00:13:46;97876.09;;;18.74;76.85
66880;BME280;53789;51.392;10.234;2022-08-19T00:14:08;97880.03;;;18.73;77.34
66880;BME280;53789;51.392;10.234;2022-08-19T00:14:29;97871.69;;;18.73;77.29
66880;BME280;53789;51.392;10.234;2022-08-19T00:14:50;97879.25;;;18.72;77.14
66880;BME280;53789;51.392;10.234;2022-08-19T00:15:13;97872.03;;;18.71;77.50
66880;BME280;53789;51.392;10.234;2022-08-19T00:15:34;97876.44;;;18.72;77.40
66880;BME280;53789;51.392;10.234;2022-08-19T00:15:55;97877.63;;;18.71;77.34
66880;BME280;53789;51.392;10.234;2022-08-19T00:16:17;97874.84;;;18.71;76.79
66880;BME280;53789;51.392;10.234;2022-08-19T00:16:39;97880.41;;;18.71;77.22
66880;BME280;53789;51.392;10.234;2022-08-19T00:17:00;97878.78;;;18.70;77.47
66880;BME280;53789;51.392;10.234;2022-08-19T00:17:21;97877.19;;;18.69;77.32
66880;BME280;53789;51.392;10.234;2022-08-19T00:17:43;97880.78;;;18.70;77.63
66880;BME280;53789;51.392;10.234;2022-08-19T00:18:03;97876.38;;;18.69;77.22
66880;BME280;53789;51.392;10.234;2022-08-19T00:18:24;97877.56;;;18.68;77.47
66880;BME280;53789;51.392;10.234;2022-08-19T00:18:44;97879.53;;;18.67;77.43
66880;BME280;53789;51.392;10.234;2022-08-19T00:19:06;97875.16;;;18.66;77.93
66880;BME280;53789;51.392;10.234;2022-08-19T00:19:27;97877.94;;;18.66;78.00
66880;BME280;53789;51.392;10.234;2022-08-19T00:19:47;97874.69;;;18.64;77.41
66880;BME280;53789;51.392;10.234;2022-08-19T00:20:10;97879.09;;;18.65;77.92
66880;BME280;53789;51.392;10.234;2022-08-19T00:20:31;97875.84;;;18.63;77.25
66880;BME280;53789;51.392;10.234;2022-08-19T00:20:51;97874.28;;;18.62;77.37
66880;BME280;53789;51.392;10.234;2022-08-19T00:21:12;97880.63;;;18.62;77.97
66880;BME280;53789;51.392;10.234;2022-08-19T00:21:33;97881.81;;;18.61;77.65
66880;BME280;53789;51.392;10.234;2022-08-19T00:21:53;97876.22;;;18.61;77.78
66880;BME280;53789;51.392;10.234;2022-08-19T00:22:14;97883.00;;;18.60;77.61
66880;BME280;53789;51.392;10.234;2022-08-19T00:22:34;97879.00;;;18.61;77.91
66880;BME280;53789;51.392;10.234;2022-08-19T00:22:54;97883.78;;;18.61;77.75
66880;BME280;53789;51.392;10.234;2022-08-19T00:23:15;97878.59;;;18.59;77.94
66880;BME280;53789;51.392;10.234;2022-08-19T00:23:36;97890.09;;;18.58;77.74
66880;BME280;53789;51.392;10.234;2022-08-19T00:23:57;97881.38;;;18.59;77.80
66880;BME280;53789;51.392;10.234;2022-08-19T00:24:18;97876.97;;;18.58;78.27
66880;BME280;53789;51.392;10.234;2022-08-19T00:24:39;97878.16;;;18.57;77.90
66880;BME280;53789;51.392;10.234;2022-08-19T00:24:59;97885.69;;;18.57;78.38
66880;BME280;53789;51.392;10.234;2022-08-19T00:25:19;97884.53;;;18.58;77.92
66880;BME280;53789;51.392;10.234;2022-08-19T00:25:40;97880.13;;;18.57;78.50
66880;BME280;53789;51.392;10.234;2022-08-19T00:26:00;97883.72;;;18.57;77.96
66880;BME280;53789;51.392;10.234;2022-08-19T00:26:20;97878.53;;;18.56;78.15
66880;BME280;53789;51.392;10.234;2022-08-19T00:26:42;97888.47;;;18.57;78.26
66880;BME280;53789;51.392;10.234;2022-08-19T00:27:04;97885.69;;;18.57;78.44
66880;BME280;53789;51.392;10.234;2022-08-19T00:27:25;97880.13;;;18.57;78.39
66880;BME280;53789;51.392;10.234;2022-08-19T00:27:45;97879.34;;;18.56;78.56
66880;BME280;53789;51.392;10.234;2022-08-19T00:28:06;97875.75;;;18.56;78.47
66880;BME280;53789;51.392;10.234;2022-08-19T00:28:26;97879.34;;;18.56;78.92
66880;BME280;53789;51.392;10.234;2022-08-19T00:28:46;97878.53;;;18.56;78.21
66880;BME280;53789;51.392;10.234;2022-08-19T00:29:09;97881.31;;;18.56;78.68
66880;BME280;53789;51.392;10.234;2022-08-19T00:29:30;97876.53;;;18.56;78.50
66880;BME280;53789;51.392;10.234;2022-08-19T00:29:51;97870.19;;;18.56;79.10
66880;BME280;53789;51.392;10.234;2022-08-19T00:30:11;97871.34;;;18.55;78.93
66880;BME280;53789;51.392;10.234;2022-08-19T00:30:32;97871.34;;;18.55;79.28
66880;BME280;53789;51.392;10.234;2022-08-19T00:30:52;97872.13;;;18.55;79.34
66880;BME280;53789;51.392;10.234;2022-08-19T00:31:13;97871.72;;;18.53;78.93
66880;BME280;53789;51.392;10.234;2022-08-19T00:31:33;97874.50;;;18.53;78.74
66880;BME280;53789;51.392;10.234;2022-08-19T00:31:54;97872.88;;;18.52;78.83
66880;BME280;53789;51.392;10.234;2022-08-19T00:32:14;97875.66;;;18.52;79.31
66880;BME280;53789;51.392;10.234;2022-08-19T00:32:34;97872.09;;;18.52;78.91
66880;BME280;53789;51.392;10.234;2022-08-19T00:32:55;97876.81;;;18.51;78.98
66880;BME280;53789;51.392;10.234;2022-08-19T00:33:15;97874.03;;;18.51;79.31
66880;BME280;53789;51.392;10.234;2022-08-19T00:33:36;97872.44;;;18.50;78.92
66880;BME280;53789;51.392;10.234;2022-08-19T00:33:56;97871.25;;;18.51;78.94
66880;BME280;53789;51.392;10.234;2022-08-19T00:34:17;97870.47;;;18.51;79.18
66880;BME280;53789;51.392;10.234;2022-08-19T00:34:37;97874.41;;;18.49;79.01
66880;BME280;53789;51.392;10.234;2022-08-19T00:34:57;97877.19;;;18.49;79.34
66880;BME280;53789;51.392;10.234;2022-08-19T00:35:18;97871.63;;;18.49;79.62
66880;BME280;53789;51.392;10.234;2022-08-19T00:35:38;97874.41;;;18.49;79.23
66880;BME280;53789;51.392;10.234;2022-08-19T00:36:00;97871.63;;;18.49;79.62
66880;BME280;53789;51.392;10.234;2022-08-19T00:36:21;97872.44;;;18.50;79.70
66880;BME280;53789;51.392;10.234;2022-08-19T00:36:42;97874.41;;;18.49;79.86
66880;BME280;53789;51.392;10.234;2022-08-19T00:37:02;97871.63;;;18.49;80.10
66880;BME280;53789;51.392;10.234;2022-08-19T00:37:24;97876.41;;;18.49;80.28
66880;BME280;53789;51.392;10.234;2022-08-19T00:37:44;97875.59;;;18.48;79.78
66880;BME280;53789;51.392;10.234;2022-08-19T00:38:05;97876.78;;;18.47;79.59
66880;BME280;53789;51.392;10.234;2022-08-19T00:38:25;97875.59;;;18.48;80.09
66880;BME280;53789;51.392;10.234;2022-08-19T00:38:46;97879.56;;;18.47;80.14
66880;BME280;53789;51.392;10.234;2022-08-19T00:39:07;97882.34;;;18.47;80.21
66880;BME280;53789;51.392;10.234;2022-08-19T00:39:28;97877.16;;;18.46;80.13
66880;BME280;53789;51.392;10.234;2022-08-19T00:39:50;97873.19;;;18.47;80.60
66880;BME280;53789;51.392;10.234;2022-08-19T00:40:11;97879.94;;;18.46;80.41
66880;BME280;53789;51.392;10.234;2022-08-19T00:40:32;97868.00;;;18.45;80.16
66880;BME280;53789;51.392;10.234;2022-08-19T00:40:53;97872.38;;;18.46;80.56
66880;BME280;53789;51.392;10.234;2022-08-19T00:41:15;97871.56;;;18.46;80.39
66880;BME280;53789;51.392;10.234;2022-08-19T00:41:36;97877.94;;;18.46;80.08
66880;BME280;53789;51.392;10.234;2022-08-19T00:41:56;97866.81;;;18.46;80.09
66880;BME280;53789;51.392;10.234;2022-08-19T00:42:20;97872.38;;;18.46;79.35
66880;BME280;53789;51.392;10.234;2022-08-19T00:42:41;97876.34;;;18.45;79.49
66880;BME280;53789;51.392;10.234;2022-08-19T00:43:10;97868.00;;;18.45;79.61
66880;BME280;53789;51.392;10.234;2022-08-19T00:43:31;97873.56;;;18.45;79.63
66880;BME280;53789;51.392;10.234;2022-08-19T00:44:24;97864.00;;;18.46;79.60
66880;BME280;53789;51.392;10.234;2022-08-19T00:44:45;97872.81;;;18.48;80.17
66880;BME280;53789;51.392;10.234;2022-08-19T00:45:16;97869.22;;;18.48;79.82
66880;BME280;53789;51.392;10.234;2022-08-19T00:45:37;97870.03;;;18.48;79.44
66880;BME280;53789;51.392;10.234;2022-08-19T00:46:00;97863.28;;;18.49;79.91
66880;BME280;53789;51.392;10.234;2022-08-19T00:46:20;97867.69;;;18.51;79.64
66880;BME280;53789;51.392;10.234;2022-08-19T00:46:44;97865.69;;;18.51;79.61
66880;BME280;53789;51.392;10.234;2022-08-19T00:47:05;97863.72;;;18.52;79.90
66880;BME280;53789;51.392;10.234;2022-08-19T00:47:25;97871.72;;;18.53;80.00
66880;BME280;53789;51.392;10.234;2022-08-19T00:47:46;97875.28;;;18.54;79.87
66880;BME280;53789;51.392;10.234;2022-08-19T00:48:07;97866.56;;;18.55;80.04
66880;BME280;53789;51.392;10.234;2022-08-19T00:48:28;97863.78;;;18.55;79.74
66880;BME280;53789;51.392;10.234;2022-08-19T00:48:48;97869.81;;;18.57;79.65
66880;BME280;53789;51.392;10.234;2022-08-19T00:49:43;97870.25;;;18.59;79.95
66880;BME280;53789;51.392;10.234;2022-08-19T00:50:05;97863.50;;;18.60;79.71
66880;BME280;53789;51.392;10.234;2022-08-19T00:50:26;97863.13;;;18.62;79.67
66880;BME280;53789;51.392;10.234;2022-08-19T00:50:49;97873.06;;;18.63;79.54
66880;BME280;53789;51.392;10.234;2022-08-19T00:51:10;97868.69;;;18.62;78.91
66880;BME280;53789;51.392;10.234;2022-08-19T00:51:31;97871.13;;;18.63;79.19
66880;BME280;53789;51.392;10.234;2022-08-19T00:51:57;97867.16;;;18.64;79.19
66880;BME280;53789;51.392;10.234;2022-08-19T00:52:27;97865.16;;;18.65;78.85
66880;BME280;53789;51.392;10.234;2022-08-19T00:52:50;97866.78;;;18.66;78.87
66880;BME280;53789;51.392;10.234;2022-08-19T00:53:15;97862.81;;;18.67;78.92
66880;BME280;53789;51.392;10.234;2022-08-19T00:53:36;97866.41;;;18.68;78.94
66880;BME280;53789;51.392;10.234;2022-08-19T00:53:59;97872.41;;;18.70;79.22
66880;BME280;53789;51.392;10.234;2022-08-19T00:54:20;97864.06;;;18.70;78.66
66880;BME280;53789;51.392;10.234;2022-08-19T00:54:43;97856.50;;;18.70;78.54
66880;BME280;53789;51.392;10.234;2022-08-19T00:55:08;97860.09;;;18.71;79.20
66880;BME280;53789;51.392;10.234;2022-08-19T00:55:28;97860.91;;;18.71;78.79
66880;BME280;53789;51.392;10.234;2022-08-19T00:55:52;97855.34;;;18.71;79.33
66880;BME280;53789;51.392;10.234;2022-08-19T00:56:13;97860.53;;;18.73;79.05
66880;BME280;53789;51.392;10.234;2022-08-19T00:56:34;97859.38;;;18.74;79.12
66880;BME280;53789;51.392;10.234;2022-08-19T00:56:54;97866.53;;;18.75;78.89
66880;BME280;53789;51.392;10.234;2022-08-19T00:57:18;97861.78;;;18.75;78.70
66880;BME280;53789;51.392;10.234;2022-08-19T00:57:48;97866.19;;;18.76;78.68
66880;BME280;53789;51.392;10.234;2022-08-19T00:58:13;97860.63;;;18.76;79.07
66880;BME280;53789;51.392;10.234;2022-08-19T00:58:36;97861.41;;;18.77;79.19
66880;BME280;53789;51.392;10.234;2022-08-19T00:58:58;97869.75;;;18.77;78.60
66880;BME280;53789;51.392;10.234;2022-08-19T00:59:20;97868.63;;;18.78;78.29
66880;BME280;53789;51.392;10.234;2022-08-19T00:59:42;97863.84;;;18.78;78.83
66880;BME280;53789;51.392;10.234;2022-08-19T01:00:11;97864.66;;;18.79;78.99
66880;BME280;53789;51.392;10.234;2022-08-19T01:00:33;97861.06;;;18.78;78.59
66880;BME280;53789;51.392;10.234;2022-08-19T01:00:54;97859.91;;;18.79;78.54
66880;BME280;53789;51.392;10.234;2022-08-19T01:01:15;97863.47;;;18.80;78.74
66880;BME280;53789;51.392;10.234;2022-08-19T01:01:38;97863.13;;;18.81;78.98
66880;BME280;53789;51.392;10.234;2022-08-19T01:02:00;97866.69;;;18.82;78.99
66880;BME280;53789;51.392;10.234;2022-08-19T01:02:20;97865.91;;;18.81;78.73
66880;BME280;53789;51.392;10.234;2022-08-19T01:02:42;97859.16;;;18.82;78.68
66880;BME280;53789;51.392;10.234;2022-08-19T01:03:10;97862.75;;;18.83;78.81
66880;BME280;53789;51.392;10.234;2022-08-19T01:03:31;97856.00;;;18.84;78.42
66880;BME280;53789;51.392;10.234;2022-08-19T01:03:52;97864.34;;;18.84;78.96
66880;BME280;53789;51.392;10.234;2022-08-19T01:04:13;97849.22;;;18.85;78.58
66880;BME280;53789;51.392;10.234;2022-08-19T01:04:33;97855.63;;;18.86;78.60
66880;BME280;53789;51.392;10.234;2022-08-19T01:04:55;97852.84;;;18.86;78.57
66880;BME280;53789;51.392;10.234;2022-08-19T01:05:20;97857.22;;;18.87;78.54
66880;BME280;53789;51.392;10.234;2022-08-19T01:05:43;97851.66;;;18.87;78.70
66880;BME280;53789;51.392;10.234;2022-08-19T01:06:05;97856.06;;;18.88;78.57
66880;BME280;53789;51.392;10.234;2022-08-19T01:06:26;97853.25;;;18.88;78.76
66880;BME280;53789;51.392;10.234;2022-08-19T01:06:47;97857.66;;;18.89;78.55
66880;BME280;53789;51.392;10.234;2022-08-19T01:07:07;97852.09;;;18.89;78.34
66880;BME280;53789;51.392;10.234;2022-08-19T01:07:28;97853.72;;;18.90;78.51
66880;BME280;53789;51.392;10.234;2022-08-19T01:07:49;97856.50;;;18.90;78.41
66880;BME280;53789;51.392;10.234;2022-08-19T01:08:11;97849.31;;;18.89;78.21
66880;BME280;53789;51.392;10.234;2022-08-19T01:08:31;97852.09;;;18.89;78.81
66880;BME280;53789;51.392;10.234;2022-08-19T01:08:53;97851.28;;;18.88;78.88
66880;BME280;53789;51.392;10.234;2022-08-19T01:09:14;97861.25;;;18.89;78.73
66880;BME280;53789;51.392;10.234;2022-08-19T01:09:35;97852.91;;;18.89;78.68
66880;BME280;53789;51.392;10.234;2022-08-19T01:09:55;97849.31;;;18.89;78.62
66880;BME280;53789;51.392;10.234;2022-08-19T01:10:22;97848.50;;;18.88;78.68
66880;BME280;53789;51.392;10.234;2022-08-19T01:10:48;97846.53;;;18.89;78.88
66880;BME280;53789;51.392;10.234;2022-08-19T01:11:10;97852.91;;;18.89;79.20
66880;BME280;53789;51.392;10.234;2022-08-19T01:11:34;97841.75;;;18.89;78.50
66880;BME280;53789;51.392;10.234;2022-08-19T01:11:57;97848.16;;;18.90;78.44
66880;BME280;53789;51.392;10.234;2022-08-19T01:12:18;97850.94;;;18.90;79.13
66880;BME280;53789;51.392;10.234;2022-08-19T01:12:39;97848.16;;;18.90;78.89
66880;BME280;53789;51.392;10.234;2022-08-19T01:13:01;97843.38;;;18.90;79.10
66880;BME280;53789;51.392;10.234;2022-08-19T01:13:26;97847.78;;;18.91;79.10
66880;BME280;53789;51.392;10.234;2022-08-19T01:13:48;97846.94;;;18.91;78.75
66880;BME280;53789;51.392;10.234;2022-08-19T01:14:10;97843.00;;;18.92;78.61
66880;BME280;53789;51.392;10.234;2022-08-19T01:14:31;97845.78;;;18.92;78.43
66880;BME280;53789;51.392;10.234;2022-08-19T01:14:52;97843.00;;;18.92;78.13
66880;BME280;53789;51.392;10.234;2022-08-19T01:15:19;97844.25;;;18.94;78.42
66880;BME280;53789;51.392;10.234;2022-08-19T01:15:50;97844.25;;;18.94;78.52
66880;BME280;53789;51.392;10.234;2022-08-19T01:16:13;97844.66;;;18.96;78.12
66880;BME280;53789;51.392;10.234;2022-08-19T01:16:35;97844.66;;;18.96;78.72
66880;BME280;53789;51.392;10.234;2022-08-19T01:16:58;97849.84;;;18.98;78.56
66880;BME280;53789;51.392;10.234;2022-08-19T01:17:19;97849.84;;;18.98;78.12
66880;BME280;53789;51.392;10.234;2022-08-19T01:17:42;97850.66;;;18.98;78.08
66880;BME280;53789;51.392;10.234;2022-08-19T01:18:08;97850.28;;;19.00;78.25
66880;BME280;53789;51.392;10.234;2022-08-19T01:18:32;97850.72;;;19.02;77.57
66880;BME280;53789;51.392;10.234;2022-08-19T01:18:53;97843.16;;;19.03;78.05
66880;BME280;53789;51.392;10.234;2022-08-19T01:19:27;97849.19;;;19.05;78.41
66880;BME280;53789;51.392;10.234;2022-08-19T01:19:49;97853.56;;;19.06;78.24
66880;BME280;53789;51.392;10.234;2022-08-19T01:20:19;97850.78;;;19.06;77.80
66880;BME280;53789;51.392;10.234;2022-08-19T01:20:41;97855.19;;;19.07;78.40
66880;BME280;53789;51.392;10.234;2022-08-19T01:21:10;97857.59;;;19.08;78.08
66880;BME280;53789;51.392;10.234;2022-08-19T01:22:12;97850.47;;;19.11;77.61
66880;BME280;53789;51.392;10.234;2022-08-19T01:22:46;97856.09;;;19.14;76.85
66880;BME280;53789;51.392;10.234;2022-08-19T01:23:08;97857.34;;;19.17;77.01
66880;BME280;53789;51.392;10.234;2022-08-19T01:23:28;97849.41;;;19.19;76.73
66880;BME280;53789;51.392;10.234;2022-08-19T01:23:49;97857.75;;;19.19;77.00
66880;BME280;53789;51.392;10.234;2022-08-19T01:24:09;97853.00;;;19.20;76.99
66880;BME280;53789;51.392;10.234;2022-08-19T01:24:29;97843.44;;;19.21;77.38
66880;BME280;53789;51.392;10.234;2022-08-19T01:24:51;97853.44;;;19.22;77.34
66880;BME280;53789;51.392;10.234;2022-08-19T01:25:14;97852.25;;;19.23;77.38
66880;BME280;53789;51.392;10.234;2022-08-19T01:25:50;97853.06;;;19.23;77.17
66880;BME280;53789;51.392;10.234;2022-08-19T01:26:17;97846.69;;;19.23;77.54
66880;BME280;53789;51.392;10.234;2022-08-19T01:26:41;97845.88;;;19.22;77.73
66880;BME280;53789;51.392;10.234;2022-08-19T01:27:04;97845.50;;;19.24;77.73
66880;BME280;53789;51.392;10.234;2022-08-19T01:27:25;97848.28;;;19.24;77.70
66880;BME280;53789;51.392;10.234;2022-08-19T01:27:49;97849.91;;;19.25;77.43
66880;BME280;53789;51.392;10.234;2022-08-19T01:28:26;97850.72;;;19.25;76.91
66880;BME280;53789;51.392;10.234;2022-08-19T01:28:51;97844.78;;;19.27;77.44
66880;BME280;53789;51.392;10.234;2022-08-19T01:29:13;97839.19;;;19.27;77.22
66880;BME280;53789;51.392;10.234;2022-08-19T01:29:34;97847.19;;;19.28;76.74
66880;BME280;53789;51.392;10.234;2022-08-19T01:29:56;97850.75;;;19.29;76.89
66880;BME280;53789;51.392;10.234;2022-08-19T01:30:24;97855.16;;;19.30;76.68
66880;BME280;53789;51.392;10.234;2022-08-19T01:30:45;97845.19;;;19.29;76.72
66880;BME280;53789;51.392;10.234;2022-08-19T01:31:09;97847.19;;;19.28;76.77
66880;BME280;53789;51.392;10.234;2022-08-19T01:31:29;97850.75;;;19.29;76.68
66880;BME280;53789;51.392;10.234;2022-08-19T01:31:50;97845.19;;;19.29;76.90
66880;BME280;53789;51.392;10.234;2022-08-19T01:32:13;97849.59;;;19.30;76.82
66880;BME280;53789;51.392;10.234;2022-08-19T01:32:34;97854.34;;;19.29;76.94
66880;BME280;53789;51.392;10.234;2022-08-19T01:32:56;97854.34;;;19.29;76.88
66880;BME280;53789;51.392;10.234;2022-08-19T01:33:16;97859.53;;;19.31;75.94
66880;BME280;53789;51.392;10.234;2022-08-19T01:33:37;97858.38;;;19.32;76.60
66880;BME280;53789;51.392;10.234;2022-08-19T01:33:58;97856.38;;;19.32;76.51
66880;BME280;53789;51.392;10.234;2022-08-19T01:34:19;97854.41;;;19.33;76.20
66880;BME280;53789;51.392;10.234;2022-08-19T01:34:39;97853.22;;;19.34;75.86
66880;BME280;53789;51.392;10.234;2022-08-19T01:35:01;97854.03;;;19.34;76.33
66880;BME280;53789;51.392;10.234;2022-08-19T01:35:24;97862.03;;;19.36;76.18
66880;BME280;53789;51.392;10.234;2022-08-19T01:35:44;97851.69;;;19.36;76.20
66880;BME280;53789;51.392;10.234;2022-08-19T01:36:08;97858.06;;;19.37;76.10
66880;BME280;53789;51.392;10.234;2022-08-19T01:36:36;97865.25;;;19.38;76.15
66880;BME280;53789;51.392;10.234;2022-08-19T01:36:57;97862.44;;;19.38;75.98
66880;BME280;53789;51.392;10.234;2022-08-19T01:37:17;97858.06;;;19.37;75.94
66880;BME280;53789;51.392;10.234;2022-08-19T01:37:52;97859.66;;;19.38;76.67
66880;BME280;53789;51.392;10.234;2022-08-19T01:38:26;97857.69;;;19.39;76.30
66880;BME280;53789;51.392;10.234;2022-08-19T01:38:47;97860.50;;;19.39;76.34
66880;BME280;53789;51.392;10.234;2022-08-19T01:39:11;97856.09;;;19.38;76.18
66880;BME280;53789;51.392;10.234;2022-08-19T01:39:31;97847.72;;;19.38;76.37
66880;BME280;53789;51.392;10.234;2022-08-19T01:39:52;97849.72;;;19.37;76.43
66880;BME280;53789;51.392;10.234;2022-08-19T01:40:12;97860.88;;;19.37;76.21
66880;BME280;53789;51.392;10.234;2022-08-19T01:40:35;97849.34;;;19.39;76.15
66880;BME280;53789;51.392;10.234;2022-08-19T01:40:56;97849.34;;;19.39;76.46
66880;BME280;53789;51.392;10.234;2022-08-19T01:41:17;97848.50;;;19.38;76.71
66880;BME280;53789;51.392;10.234;2022-08-19T01:41:38;97847.72;;;19.38;76.33
66880;BME280;53789;51.392;10.234;2022-08-19T01:41:58;97851.25;;;19.34;76.65
66880;BME280;53789;51.392;10.234;2022-08-19T01:42:18;97845.69;;;19.34;76.51
66880;BME280;53789;51.392;10.234;2022-08-19T01:42:39;97853.22;;;19.34;76.52
66880;BME280;53789;51.392;10.234;2022-08-19T01:43:00;97848.47;;;19.34;76.66
66880;BME280;53789;51.392;10.234;2022-08-19T01:43:21;97841.28;;;19.33;76.52
66880;BME280;53789;51.392;10.234;2022-08-19T01:43:41;97847.22;;;19.32;76.29
66880;BME280;53789;51.392;10.234;2022-08-19T01:44:04;97843.66;;;19.31;76.74
66880;BME280;53789;51.392;10.234;2022-08-19T01:44:25;97844.03;;;19.30;76.89
66880;BME280;53789;51.392;10.234;2022-08-19T01:44:45;97841.59;;;19.28;76.82
66880;BME280;53789;51.392;10.234;2022-08-19T01:45:06;97839.63;;;19.29;76.42
66880;BME280;53789;51.392;10.234;2022-08-19T01:45:29;97836.03;;;19.28;76.85
66880;BME280;53789;51.392;10.234;2022-08-19T01:45:50;97836.41;;;19.27;77.15
66880;BME280;53789;51.392;10.234;2022-08-19T01:46:10;97837.19;;;19.27;77.05
66880;BME280;53789;51.392;10.234;2022-08-19T01:46:31;97840.78;;;19.28;76.87
66880;BME280;53789;51.392;10.234;2022-08-19T01:46:52;97836.41;;;19.27;76.92
66880;BME280;53789;51.392;10.234;2022-08-19T01:47:12;97835.59;;;19.26;77.08
66880;BME280;53789;51.392;10.234;2022-08-19T01:47:35;97832.78;;;19.26;76.92
66880;BME280;53789;51.392;10.234;2022-08-19T01:47:56;97837.94;;;19.24;77.04
66880;BME280;53789;51.392;10.234;2022-08-19T01:48:17;97826.81;;;19.24;76.90
66880;BME280;53789;51.392;10.234;2022-08-19T01:48:40;97833.16;;;19.25;76.93
66880;BME280;53789;51.392;10.234;2022-08-19T01:49:04;97825.19;;;19.23;76.80
66880;BME280;53789;51.392;10.234;2022-08-19T01:49:25;97837.13;;;19.24;77.37
66880;BME280;53789;51.392;10.234;2022-08-19T01:49:46;97832.75;;;19.23;77.02
66880;BME280;53789;51.392;10.234;2022-08-19T01:50:08;97836.72;;;19.22;77.14
66880;BME280;53789;51.392;10.234;2022-08-19T01:50:32;97833.91;;;19.22;77.52
66880;BME280;53789;51.392;10.234;2022-08-19T01:50:52;97829.50;;;19.21;77.25
66880;BME280;53789;51.392;10.234;2022-08-19T01:51:13;97837.09;;;19.20;77.28
66880;BME280;53789;51.392;10.234;2022-08-19T01:51:33;97833.50;;;19.20;77.30
66880;BME280;53789;51.392;10.234;2022-08-19T01:51:54;97841.88;;;19.20;77.73
66880;BME280;53789;51.392;10.234;2022-08-19T01:52:14;97835.84;;;19.17;77.70
66880;BME280;53789;51.392;10.234;2022-08-19T01:52:38;97837.84;;;19.17;77.58
66880;BME280;53789;51.392;10.234;2022-08-19T01:53:00;97837.03;;;19.16;77.62
66880;BME280;53789;51.392;10.234;2022-08-19T01:53:20;97842.16;;;19.14;77.34
66880;BME280;53789;51.392;10.234;2022-08-19T01:53:41;97837.78;;;19.13;77.21
66880;BME280;53789;51.392;10.234;2022-08-19T01:54:02;97833.38;;;19.12;77.56
66880;BME280;53789;51.392;10.234;2022-08-19T01:54:24;97839.75;;;19.13;77.38
66880;BME280;53789;51.392;10.234;2022-08-19T01:54:44;97836.97;;;19.13;77.62
66880;BME280;53789;51.392;10.234;2022-08-19T01:55:08;97838.13;;;19.12;77.77
66880;BME280;53789;51.392;10.234;2022-08-19T01:55:29;97836.97;;;19.13;77.54
66880;BME280;53789;51.392;10.234;2022-08-19T01:55:50;97837.78;;;19.13;77.09
66880;BME280;53789;51.392;10.234;2022-08-19T01:56:10;97830.59;;;19.12;77.20
66880;BME280;53789;51.392;10.234;2022-08-19T01:56:30;97836.16;;;19.12;77.52